createdAt,value
2022-11-06T00:00:42.951Z,99913.56
2022-11-06T00:03:12.146Z,99906.59
2022-11-06T00:06:00.241Z,99903.97
2022-11-06T00:08:33.521Z,99896.06
2022-11-06T00:11:02.307Z,99905.63
2022-11-06T00:13:30.734Z,99885.34
2022-11-06T00:16:03.862Z,99894.19
2022-11-06T00:18:31.988Z,99886.28
2022-11-06T00:21:00.152Z,99884.47
2022-11-06T00:23:28.451Z,99884.41
2022-11-06T00:25:56.890Z,99884.47
2022-11-06T00:28:24.994Z,99888.00
2022-11-06T00:30:53.217Z,99882.59
2022-11-06T00:33:22.650Z,99880.84
2022-11-06T00:35:50.985Z,99887.88
2022-11-06T00:38:19.501Z,99880.78
2022-11-06T00:40:47.540Z,99865.22
2022-11-06T00:43:15.590Z,99856.34
2022-11-06T00:45:43.825Z,99865.03
2022-11-06T00:48:12.237Z,99864.16
2022-11-06T00:50:41.986Z,99854.44
2022-11-06T00:53:10.447Z,99852.63
2022-11-06T00:55:38.682Z,99857.03
2022-11-06T00:58:06.994Z,99851.72
2022-11-06T01:00:35.546Z,99849.16
2022-11-06T01:03:03.699Z,99845.72
2022-11-06T01:05:31.860Z,99844.75
2022-11-06T01:08:01.851Z,99850.94
2022-11-06T01:10:29.957Z,99854.38
2022-11-06T01:12:58.132Z,99853.50
2022-11-06T01:15:29.043Z,99852.69
2022-11-06T01:17:57.300Z,99858.78
2022-11-06T01:20:25.458Z,99846.47
2022-11-06T01:22:53.804Z,99843.75
2022-11-06T01:25:23.208Z,99839.31
2022-11-06T01:27:51.284Z,99838.31
2022-11-06T01:30:19.625Z,99832.34
2022-11-06T01:32:47.987Z,99827.06
2022-11-06T01:35:16.042Z,99838.56
2022-11-06T01:37:44.659Z,99813.19
2022-11-06T01:40:12.986Z,99822.50
2022-11-06T01:42:42.458Z,99824.25
2022-11-06T01:45:32.209Z,99803.22
2022-11-06T01:48:01.289Z,99787.53
2022-11-06T01:50:29.736Z,99802.91
2022-11-06T01:53:00.911Z,99789.84
2022-11-06T01:55:33.973Z,99788.91
2022-11-06T01:58:07.059Z,99793.44
2022-11-06T02:00:35.897Z,99789.03
2022-11-06T02:03:04.505Z,99783.78
2022-11-06T02:05:33.577Z,99777.66
2022-11-06T02:08:02.765Z,99776.63
2022-11-06T02:10:31.666Z,99772.06
2022-11-06T02:13:19.997Z,99757.41
2022-11-06T02:15:52.181Z,99754.03
2022-11-06T02:18:34.741Z,99764.50
2022-11-06T02:21:39.126Z,99757.41
2022-11-06T02:24:37.817Z,99757.41
2022-11-06T02:27:12.212Z,99745.16
2022-11-06T02:29:49.284Z,99711.84
2022-11-06T02:32:22.901Z,99733.59
2022-11-06T02:34:54.570Z,99713.59
2022-11-06T02:37:27.612Z,99727.44
2022-11-06T02:39:58.819Z,99720.44
2022-11-06T02:42:31.324Z,99718.72
2022-11-06T02:45:02.094Z,99703.91
2022-11-06T02:47:33.907Z,99712.69
2022-11-06T02:50:08.317Z,99701.22
2022-11-06T02:52:41.845Z,99699.53
2022-11-06T02:55:13.010Z,99694.31
2022-11-06T02:57:48.082Z,99675.06
2022-11-06T03:00:18.335Z,99671.56
2022-11-06T03:02:50.025Z,99667.16
2022-11-06T03:05:25.243Z,99666.41
2022-11-06T03:07:59.441Z,99669.94
2022-11-06T03:10:35.157Z,99666.47
2022-11-06T03:13:13.731Z,99653.25
2022-11-06T03:15:47.522Z,99652.56
2022-11-06T03:18:20.740Z,99643.66
2022-11-06T03:20:57.899Z,99647.28
2022-11-06T03:23:34.642Z,99643.03
2022-11-06T03:26:13.718Z,99636.88
2022-11-06T03:28:52.377Z,99626.47
2022-11-06T03:31:27.353Z,99626.38
2022-11-06T03:34:00.104Z,99620.19
2022-11-06T03:36:33.645Z,99616.91
2022-11-06T03:39:04.567Z,99628.25
2022-11-06T03:41:39.698Z,99619.53
2022-11-06T03:44:14.844Z,99611.44
2022-11-06T03:46:48.840Z,99605.22
2022-11-06T03:49:22.325Z,99612.22
2022-11-06T03:51:55.005Z,99584.41
2022-11-06T03:54:28.452Z,99601.75
2022-11-06T03:56:59.598Z,99579.13
2022-11-06T03:59:35.672Z,99587.56
2022-11-06T04:02:04.888Z,99580.69
2022-11-06T04:04:38.526Z,99578.78
2022-11-06T04:07:10.788Z,99571.97
2022-11-06T04:10:00.226Z,99566.56
2022-11-06T04:12:49.771Z,99547.50
2022-11-06T04:15:22.778Z,99557.78
2022-11-06T04:17:51.395Z,99559.41
2022-11-06T04:20:41.405Z,99543.59
2022-11-06T04:23:15.773Z,99539.06
2022-11-06T04:26:12.377Z,99541.75
2022-11-06T04:28:47.190Z,99555.13
2022-11-06T04:31:27.005Z,99536.88
2022-11-06T04:34:03.764Z,99546.34
2022-11-06T04:36:43.872Z,99534.13
2022-11-06T04:39:19.542Z,99537.56
2022-11-06T04:41:57.117Z,99545.53
2022-11-06T04:44:30.139Z,99522.88
2022-11-06T04:47:03.382Z,99527.97
2022-11-06T04:49:37.338Z,99519.50
2022-11-06T04:52:10.388Z,99517.50
2022-11-06T04:54:39.584Z,99513.34
2022-11-06T04:57:08.070Z,99514.41
2022-11-06T04:59:40.379Z,99502.97
2022-11-06T05:02:10.422Z,99488.97
2022-11-06T05:04:38.696Z,99498.41
2022-11-06T05:07:07.072Z,99479.16
2022-11-06T05:09:35.819Z,99479.41
2022-11-06T05:12:05.639Z,99482.94
2022-11-06T05:14:33.934Z,99480.19
2022-11-06T05:17:02.079Z,99465.44
2022-11-06T05:19:31.533Z,99475.13
2022-11-06T05:22:17.313Z,99456.19
2022-11-06T05:24:45.636Z,99471.66
2022-11-06T05:27:13.832Z,99467.41
2022-11-06T05:29:41.897Z,99449.88
2022-11-06T05:32:10.251Z,99446.50
2022-11-06T05:34:39.912Z,99448.91
2022-11-06T05:37:10.972Z,99437.72
2022-11-06T05:39:42.016Z,99431.53
2022-11-06T05:42:11.517Z,99421.81
2022-11-06T05:44:39.760Z,99422.56
2022-11-06T05:47:08.390Z,99422.56
2022-11-06T05:49:38.371Z,99425.19
2022-11-06T05:52:08.331Z,99429.00
2022-11-06T05:54:36.965Z,99416.56
2022-11-06T05:57:05.440Z,99410.59
2022-11-06T05:59:34.087Z,99413.19
2022-11-06T06:02:02.231Z,99407.94
2022-11-06T06:04:30.504Z,99399.03
2022-11-06T06:06:58.761Z,99409.47
2022-11-06T06:09:28.555Z,99398.84
2022-11-06T06:11:56.753Z,99402.56
2022-11-06T06:14:25.117Z,99404.47
2022-11-06T06:16:53.405Z,99412.03
2022-11-06T06:19:21.623Z,99407.66
2022-11-06T06:21:50.774Z,99401.00
2022-11-06T06:24:19.170Z,99408.00
2022-11-06T06:26:48.875Z,99402.47
2022-11-06T06:29:17.309Z,99404.19
2022-11-06T06:31:45.616Z,99414.28
2022-11-06T06:34:13.774Z,99404.56
2022-11-06T06:36:42.066Z,99400.91
2022-11-06T06:39:10.665Z,99394.03
2022-11-06T06:41:38.717Z,99394.19
2022-11-06T06:44:08.741Z,99380.28
2022-11-06T06:46:39.674Z,99385.31
2022-11-06T06:49:08.724Z,99384.41
2022-11-06T06:51:38.906Z,99385.47
2022-11-06T06:54:07.306Z,99372.97
2022-11-06T06:56:35.895Z,99364.34
2022-11-06T06:59:04.266Z,99369.78
2022-11-06T07:01:36.003Z,99367.06
2022-11-06T07:04:04.709Z,99369.59
2022-11-06T07:06:32.945Z,99374.81
2022-11-06T07:09:01.261Z,99369.53
2022-11-06T07:11:29.685Z,99351.41
2022-11-06T07:13:58.160Z,99364.34
2022-11-06T07:16:27.644Z,99355.50
2022-11-06T07:18:57.963Z,99348.47
2022-11-06T07:21:26.666Z,99347.44
2022-11-06T07:23:54.841Z,99350.09
2022-11-06T07:26:23.211Z,99337.81
2022-11-06T07:28:51.429Z,99342.81
2022-11-06T07:31:19.653Z,99333.09
2022-11-06T07:33:47.924Z,99320.94
2022-11-06T07:36:17.834Z,99313.94
2022-11-06T07:38:46.131Z,99328.63
2022-11-06T07:41:15.770Z,99318.09
2022-11-06T07:43:44.855Z,99312.56
2022-11-06T07:46:14.452Z,99305.56
2022-11-06T07:48:42.890Z,99305.66
2022-11-06T07:51:12.685Z,99305.38
2022-11-06T07:53:42.583Z,99308.97
2022-11-06T07:56:11.281Z,99300.03
2022-11-06T07:58:39.989Z,99280.06
2022-11-06T08:01:18.618Z,99291.22
2022-11-06T08:03:47.500Z,99290.28
2022-11-06T08:06:16.108Z,99282.22
2022-11-06T08:08:45.731Z,99285.66
2022-11-06T08:11:14.419Z,99271.50
2022-11-06T08:13:42.849Z,99286.28
2022-11-06T08:16:12.847Z,99273.09
2022-11-06T08:18:42.078Z,99283.56
2022-11-06T08:21:10.933Z,99273.03
2022-11-06T08:23:39.488Z,99270.56
2022-11-06T08:26:09.227Z,99271.34
2022-11-06T08:28:37.604Z,99270.22
2022-11-06T08:31:07.096Z,99272.78
2022-11-06T08:33:35.936Z,99263.88
2022-11-06T08:36:05.406Z,99246.34
2022-11-06T08:38:33.831Z,99251.41
2022-11-06T08:41:06.638Z,99257.31
2022-11-06T08:43:37.049Z,99252.91
2022-11-06T08:46:05.763Z,99251.19
2022-11-06T08:48:34.500Z,99244.22
2022-11-06T08:51:02.945Z,99251.00
2022-11-06T08:53:31.427Z,99250.84
2022-11-06T08:56:00.917Z,99222.41
2022-11-06T08:58:29.145Z,99259.47
2022-11-06T09:00:58.976Z,99252.41
2022-11-06T09:03:27.245Z,99245.59
2022-11-06T09:05:55.318Z,99257.53
2022-11-06T09:08:24.331Z,99259.16
2022-11-06T09:10:58.147Z,99251.09
2022-11-06T09:13:26.987Z,99265.25
2022-11-06T09:15:55.350Z,99250.47
2022-11-06T09:18:24.899Z,99258.25
2022-11-06T09:20:55.849Z,99228.25
2022-11-06T09:23:24.461Z,99263.13
2022-11-06T09:25:52.592Z,99255.41
2022-11-06T09:28:20.743Z,99261.31
2022-11-06T09:30:49.189Z,99251.97
2022-11-06T09:33:17.715Z,99262.19
2022-11-06T09:35:47.534Z,99256.47
2022-11-06T09:38:16.659Z,99268.31
2022-11-06T09:40:50.586Z,99268.16
2022-11-06T09:44:03.039Z,99270.88
2022-11-06T09:46:25.084Z,99261.44
2022-11-06T09:49:00.019Z,99268.75
2022-11-06T09:51:38.995Z,99270.78
2022-11-06T09:54:14.030Z,99268.94
2022-11-06T09:56:43.870Z,99280.03
2022-11-06T09:59:15.599Z,99275.50
2022-11-06T10:01:49.914Z,99273.09
2022-11-06T10:04:41.010Z,99278.25
2022-11-06T10:07:24.148Z,99271.00
2022-11-06T10:09:52.635Z,99265.75
2022-11-06T10:12:30.282Z,99266.81
2022-11-06T10:15:09.183Z,99276.81
2022-11-06T10:17:48.384Z,99283.91
2022-11-06T10:20:26.472Z,99280.34
2022-11-06T10:23:05.585Z,99276.81
2022-11-06T10:25:55.695Z,99280.44
2022-11-06T10:28:58.505Z,99293.50
2022-11-06T10:31:34.938Z,99294.94
2022-11-06T10:34:07.396Z,99296.50
2022-11-06T10:36:48.732Z,99291.75
2022-11-06T10:39:24.728Z,99291.75
2022-11-06T10:41:59.456Z,99305.66
2022-11-06T10:44:33.419Z,99295.09
2022-11-06T10:47:08.034Z,99316.19
2022-11-06T10:49:44.215Z,99312.66
2022-11-06T10:52:30.782Z,99318.78
2022-11-06T10:55:29.497Z,99324.13
2022-11-06T10:58:01.048Z,99330.09
2022-11-06T11:00:29.490Z,99309.84
2022-11-06T11:03:00.707Z,99315.63
2022-11-06T11:05:39.987Z,99319.19
2022-11-06T11:08:29.636Z,99326.19
2022-11-06T11:11:05.316Z,99324.56
2022-11-06T11:13:34.438Z,99320.03
2022-11-06T11:16:06.894Z,99317.00
2022-11-06T11:18:35.184Z,99323.66
2022-11-06T11:21:15.349Z,99329.66
2022-11-06T11:23:44.502Z,99330.66
2022-11-06T11:26:25.774Z,99315.91
2022-11-06T11:28:56.753Z,99338.53
2022-11-06T11:31:32.793Z,99342.69
2022-11-06T11:34:06.724Z,99343.84
2022-11-06T11:36:51.942Z,99342.34
2022-11-06T11:39:22.878Z,99357.31
2022-11-06T11:41:52.752Z,99360.19
2022-11-06T11:44:22.172Z,99366.91
2022-11-06T11:46:52.555Z,99374.66
2022-11-06T11:49:32.052Z,99362.19
2022-11-06T11:52:03.076Z,99370.91
2022-11-06T11:54:35.639Z,99357.78
2022-11-06T11:57:08.063Z,99362.81
2022-11-06T11:59:43.303Z,99348.19
2022-11-06T12:02:25.268Z,99370.53
2022-11-06T12:04:58.737Z,99375.69
2022-11-06T12:07:30.489Z,99377.50
2022-11-06T12:10:01.297Z,99371.53
2022-11-06T12:12:34.028Z,99382.19
2022-11-06T12:15:18.774Z,99392.47
2022-11-06T12:17:52.430Z,99389.22
2022-11-06T12:20:26.140Z,99387.38
2022-11-06T12:22:57.632Z,99402.22
2022-11-06T12:25:30.733Z,99388.91
2022-11-06T12:28:03.953Z,99399.59
2022-11-06T12:30:37.492Z,99403.09
2022-11-06T12:33:12.483Z,99396.34
2022-11-06T12:35:44.484Z,99415.44
2022-11-06T12:38:20.677Z,99422.41
2022-11-06T12:40:52.640Z,99423.66
2022-11-06T12:43:30.535Z,99432.47
2022-11-06T12:46:16.459Z,99413.44
2022-11-06T12:49:10.968Z,99416.09
2022-11-06T12:51:49.259Z,99420.63
2022-11-06T12:54:37.743Z,99425.25
2022-11-06T12:57:17.256Z,99418.47
2022-11-06T13:00:04.050Z,99416.53
2022-11-06T13:02:52.288Z,99427.09
2022-11-06T13:05:24.559Z,99418.28
2022-11-06T13:08:13.945Z,99419.19
2022-11-06T13:10:56.525Z,99416.53
2022-11-06T13:19:47.232Z,99432.16
2022-11-06T13:22:26.249Z,99439.06
2022-11-06T13:25:01.965Z,99434.47
2022-11-06T13:27:38.927Z,99423.91
2022-11-06T13:30:16.048Z,99430.00
2022-11-06T13:32:52.673Z,99438.97
2022-11-06T13:35:25.011Z,99444.09
2022-11-06T13:37:55.960Z,99439.06
2022-11-06T13:40:31.566Z,99446.03
2022-11-06T13:43:05.061Z,99452.09
2022-11-06T13:45:43.944Z,99452.72
2022-11-06T13:48:37.219Z,99451.22
2022-11-06T13:51:18.600Z,99445.84
2022-11-06T13:53:59.546Z,99460.88
2022-11-06T13:57:18.852Z,99453.06
2022-11-06T14:00:02.981Z,99464.59
2022-11-06T14:02:56.316Z,99465.47
2022-11-06T14:05:52.026Z,99458.69
2022-11-06T14:08:29.075Z,99459.38
2022-11-06T14:11:01.317Z,99460.53
2022-11-06T14:13:33.442Z,99455.91
2022-11-06T14:16:25.249Z,99469.00
2022-11-06T14:18:58.865Z,99470.75
2022-11-06T14:21:46.448Z,99481.50
2022-11-06T14:24:34.142Z,99465.81
2022-11-06T14:27:04.113Z,99464.66
2022-11-06T14:29:57.696Z,99462.03
2022-11-06T14:32:46.516Z,99460.53
2022-11-06T14:35:49.075Z,99477.25
2022-11-06T14:38:36.303Z,99465.56
2022-11-06T14:41:47.632Z,99453.28
2022-11-06T14:44:44.877Z,99446.47
2022-11-06T14:47:30.074Z,99464.06
2022-11-06T14:50:01.568Z,99464.94
2022-11-06T14:52:39.720Z,99459.50
2022-11-06T14:55:09.168Z,99449.63
2022-11-06T14:57:57.439Z,99453.28
2022-11-06T15:00:45.007Z,99445.34
2022-11-06T15:03:29.614Z,99441.00
2022-11-06T15:06:03.222Z,99438.19
2022-11-06T15:08:54.281Z,99440.75
2022-11-06T15:11:59.508Z,99433.69
2022-11-06T15:15:03.371Z,99426.75
2022-11-06T15:17:36.925Z,99430.19
2022-11-06T15:20:22.628Z,99423.31
2022-11-06T15:23:03.178Z,99428.69
2022-11-06T15:25:33.239Z,99419.88
2022-11-06T15:28:07.769Z,99413.09
2022-11-06T15:30:47.372Z,99418.28
2022-11-06T15:33:22.758Z,99418.38
2022-11-06T15:35:52.361Z,99414.81
2022-11-06T15:38:23.129Z,99419.97
2022-11-06T15:40:55.152Z,99412.16
2022-11-06T15:43:31.346Z,99407.91
2022-11-06T15:46:19.636Z,99411.25
2022-11-06T15:48:49.404Z,99409.53
2022-11-06T15:51:25.446Z,99404.38
2022-11-06T15:53:54.333Z,99405.34
2022-11-06T15:56:29.840Z,99414.81
2022-11-06T15:59:13.375Z,99418.28
2022-11-06T16:01:48.028Z,99413.09
2022-11-06T16:04:20.192Z,99390.56
2022-11-06T16:06:49.656Z,99401.03
2022-11-06T16:09:20.688Z,99403.53
2022-11-06T16:11:52.490Z,99407.81
2022-11-06T16:14:22.395Z,99394.03
2022-11-06T16:16:53.106Z,99410.47
2022-11-06T16:19:30.228Z,99394.03
2022-11-06T16:22:03.368Z,99406.19
2022-11-06T16:24:35.785Z,99407.72
2022-11-06T16:27:08.180Z,99406.06
2022-11-06T16:29:37.530Z,99406.06
2022-11-06T16:32:10.735Z,99392.19
2022-11-06T16:34:44.307Z,99401.94
2022-11-06T16:37:39.117Z,99406.19
2022-11-06T16:40:49.478Z,99406.06
2022-11-06T16:43:19.456Z,99405.97
2022-11-06T16:45:59.405Z,99393.03
2022-11-06T16:48:35.924Z,99407.34
2022-11-06T16:51:07.804Z,99395.84
2022-11-06T16:53:52.695Z,99390.97
2022-11-06T16:56:26.022Z,99399.47
2022-11-06T16:58:58.022Z,99387.22
2022-11-06T17:01:27.228Z,99394.09
2022-11-06T17:04:01.077Z,99383.53
2022-11-06T17:06:31.799Z,99380.88
2022-11-06T17:09:09.630Z,99380.09
2022-11-06T17:11:39.123Z,99391.38
2022-11-06T17:14:19.744Z,99370.50
2022-11-06T17:16:50.943Z,99372.09
2022-11-06T17:19:21.691Z,99350.69
2022-11-06T17:21:50.847Z,99390.66
2022-11-06T17:27:08.481Z,99396.91
2022-11-06T17:29:39.045Z,99397.75
2022-11-06T17:32:07.724Z,99379.75
2022-11-06T17:34:40.065Z,99406.91
2022-11-06T17:37:11.491Z,99384.31
2022-11-06T17:39:40.025Z,99397.97
2022-11-06T17:42:08.553Z,99403.16
2022-11-06T17:44:37.532Z,99393.38
2022-11-06T17:47:06.720Z,99394.31
2022-11-06T17:49:34.929Z,99398.66
2022-11-06T17:52:03.682Z,99401.38
2022-11-06T17:54:33.868Z,99396.34
2022-11-06T17:57:04.158Z,99397.25
2022-11-06T17:59:32.667Z,99401.41
2022-11-06T18:02:02.627Z,99387.41
2022-11-06T18:04:32.041Z,99401.63
2022-11-06T18:07:00.543Z,99396.25
2022-11-06T18:09:30.563Z,99369.47
2022-11-06T18:11:58.837Z,99390.97
2022-11-06T18:14:28.496Z,99405.06
2022-11-06T18:16:56.520Z,99405.06
2022-11-06T18:19:26.573Z,99403.34
2022-11-06T18:21:55.422Z,99411.31
2022-11-06T18:24:23.949Z,99390.16
2022-11-06T18:26:53.664Z,99403.56
2022-11-06T18:29:21.886Z,99398.41
2022-11-06T18:31:49.990Z,99400.44
2022-11-06T18:34:21.496Z,99409.97
2022-11-06T18:36:50.320Z,99414.31
2022-11-06T18:39:20.333Z,99416.06
2022-11-06T18:41:48.824Z,99417.91
2022-11-06T18:44:19.394Z,99406.47
2022-11-06T18:46:48.311Z,99408.09
2022-11-06T18:49:17.099Z,99408.84
2022-11-06T18:51:45.945Z,99412.28
2022-11-06T18:54:14.285Z,99400.03
2022-11-06T18:56:42.666Z,99400.03
2022-11-06T18:59:16.232Z,99386.94
2022-11-06T19:01:45.848Z,99393.00
2022-11-06T19:04:14.676Z,99396.47
2022-11-06T19:06:42.804Z,99393.00
2022-11-06T19:09:11.405Z,99393.19
2022-11-06T19:11:39.813Z,99394.84
2022-11-06T19:14:08.682Z,99396.69
2022-11-06T19:16:37.139Z,99402.06
2022-11-06T19:19:08.556Z,99404.00
2022-11-06T19:21:37.078Z,99393.72
2022-11-06T19:24:06.605Z,99409.06
2022-11-06T19:26:36.393Z,99412.53
2022-11-06T19:29:05.686Z,99412.53
2022-11-06T19:31:34.155Z,99400.22
2022-11-06T19:34:03.441Z,99409.19
2022-11-06T19:36:33.195Z,99414.13
2022-11-06T19:39:01.665Z,99409.28
2022-11-06T19:41:30.782Z,99409.28
2022-11-06T19:43:59.111Z,99405.59
2022-11-06T19:46:33.999Z,99416.16
2022-11-06T19:49:04.356Z,99409.06
2022-11-06T19:51:34.770Z,99404.00
2022-11-06T19:54:03.191Z,99414.75
2022-11-06T19:56:31.826Z,99405.94
2022-11-06T19:59:00.243Z,99397.94
2022-11-06T20:01:28.587Z,99412.25
2022-11-06T20:03:57.089Z,99397.50
2022-11-06T20:06:27.661Z,99414.97
2022-11-06T20:08:57.452Z,99420.34
2022-11-06T20:11:25.755Z,99406.34
2022-11-06T20:13:53.926Z,99409.88
2022-11-06T20:16:23.715Z,99406.53
2022-11-06T20:18:52.809Z,99406.63
2022-11-06T20:21:22.371Z,99390.22
2022-11-06T20:23:51.294Z,99401.34
2022-11-06T20:26:21.308Z,99392.63
2022-11-06T20:28:50.234Z,99389.09
2022-11-06T20:31:20.616Z,99387.47
2022-11-06T20:33:49.531Z,99378.75
2022-11-06T20:36:23.303Z,99363.31
2022-11-06T20:38:52.060Z,99370.34
2022-11-06T20:41:28.464Z,99372.03
2022-11-06T20:43:57.038Z,99373.88
2022-11-06T20:46:25.777Z,99364.13
2022-11-06T20:48:54.583Z,99373.97
2022-11-06T20:51:25.559Z,99350.94
2022-11-06T20:53:54.309Z,99353.66
2022-11-06T20:56:25.494Z,99356.19
2022-11-06T20:58:56.848Z,99354.63
2022-11-06T21:01:27.369Z,99355.50
2022-11-06T21:03:57.191Z,99339.75
2022-11-06T21:06:26.590Z,99329.94
2022-11-06T21:08:55.827Z,99306.50
2022-11-06T21:11:26.209Z,99326.41
2022-11-06T21:13:56.604Z,99324.91
2022-11-06T21:16:26.924Z,99328.34
2022-11-06T21:18:55.509Z,99323.06
2022-11-06T21:21:26.828Z,99319.63
2022-11-06T21:23:55.591Z,99315.78
2022-11-06T21:26:26.162Z,99311.66
2022-11-06T21:28:56.399Z,99309.09
2022-11-06T21:31:26.817Z,99307.25
2022-11-06T21:33:57.111Z,99285.13
2022-11-06T21:36:27.672Z,99298.53
2022-11-06T21:38:58.168Z,99298.44
2022-11-06T21:41:28.337Z,99296.09
2022-11-06T21:43:58.640Z,99275.94
2022-11-06T21:46:26.834Z,99280.88
2022-11-06T21:48:55.736Z,99279.19
2022-11-06T21:51:26.731Z,99280.97
2022-11-06T21:54:13.352Z,99274.09
2022-11-06T21:56:42.766Z,99272.50
2022-11-06T21:59:14.048Z,99269.03
2022-11-06T22:01:43.403Z,99267.00
2022-11-06T22:04:12.564Z,99274.53
2022-11-06T22:06:42.140Z,99267.31
2022-11-06T22:09:11.931Z,99257.84
2022-11-06T22:11:41.510Z,99256.06
2022-11-06T22:14:14.647Z,99249.88
2022-11-06T22:16:45.428Z,99252.47
2022-11-06T22:19:14.076Z,99244.50
2022-11-06T22:21:42.628Z,99247.94
2022-11-06T22:24:12.842Z,99228.66
2022-11-06T22:26:41.595Z,99239.22
2022-11-06T22:29:12.141Z,99228.78
2022-11-06T22:31:42.102Z,99232.13
2022-11-06T22:34:11.400Z,99228.78
2022-11-06T22:36:39.857Z,99213.75
2022-11-06T22:39:09.605Z,99202.56
2022-11-06T22:41:38.445Z,99218.06
2022-11-06T22:44:07.054Z,99206.00
2022-11-06T22:46:35.944Z,99207.41
2022-11-06T22:49:06.223Z,99200.31
2022-11-06T22:51:35.473Z,99207.56
2022-11-06T22:54:04.684Z,99195.22
2022-11-06T22:56:33.577Z,99192.56
2022-11-06T22:59:03.579Z,99196.97
2022-11-06T23:01:37.387Z,99191.59
2022-11-06T23:04:15.424Z,99185.34
2022-11-06T23:06:44.855Z,99179.41
2022-11-06T23:09:13.918Z,99182.72
2022-11-06T23:11:42.744Z,99187.31
2022-11-06T23:14:11.106Z,99171.75
2022-11-06T23:16:56.232Z,99188.72
2022-11-06T23:19:26.542Z,99176.78
2022-11-06T23:22:15.622Z,99172.09
2022-11-06T23:24:44.123Z,99167.88
2022-11-06T23:27:12.934Z,99166.94
2022-11-06T23:29:41.667Z,99159.88
2022-11-06T23:32:09.821Z,99171.56
2022-11-06T23:34:39.624Z,99168.78
2022-11-06T23:37:08.176Z,99146.78
2022-11-06T23:39:36.705Z,99156.28
2022-11-06T23:42:05.009Z,99159.25
2022-11-06T23:44:50.809Z,99158.47
2022-11-06T23:47:19.076Z,99152.97
2022-11-06T23:49:48.622Z,99154.91
2022-11-06T23:52:17.951Z,99150.66
2022-11-06T23:54:46.492Z,99153.19
2022-11-06T23:57:14.921Z,99151.56
2022-11-06T23:59:43.365Z,99155.22
